หน้าหลัก
METAR-TAF:

METAR-TAF

ท่าอากาศยาน :

ท่าอากาศยานนานาชาติซีอานเสียนหยาง

ซีอาน, จีน

ละติจูด: 34-26N, ลองจิจูด: 108-45E, ความสูง: 479 ม.

การสังเกตสภาพอากาศปัจจุบัน

รายงานได้ทำขึ้นเมื่อ 1 ชั่วโมงและ 3 นาทีที่แล้ว ณ เวลา 08:00 UTC
ลม 14 นอตจากตะวันตก/ตะวันตกเฉียงเหนือ, แปรผันระหว่างตะวันตก และเหนือ/ตะวันตกเฉียงเหนือ
อุณหภูมิ 27°C
ความชื้น 28%
ความกดอากาศ 1005 hPa
ทัศนวิสัย 10 กม. หรือมากกว่า
ไม่มีเมฆต่ำกว่า 1,500 ม. และไม่มีเมฆคิวมูโลนิมบัส

METAR: ZLXY 190800Z 30007MPS 260V330 CAVOK 27/07 Q1005 NOSIG

เวลา: 17:03 (09:03 UTC)

การพยากรณ์

รายงานได้ทำขึ้นเมื่อ 6 ชั่วโมงและ 0 นาทีที่แล้ว ณ เวลา 03:03 UTC
การพยากรณ์มีผลตั้งแต่วันที่ 19 ณ เวลา 06 UTC จนถึงวันที่ 20 ณ เวลา 06 UTC
ลม 10 นอตจากตะวันตกโดยมีลมกระโชกได้ถึง19 นอต
ทัศนวิสัย: 3000 ม.
เมฆหมอก
กำลังกลายเป็น
ตั้งแต่วันที่ 19 ณ เวลา 15 UTC จนถึงวันที่ 19 ณ เวลา 16 UTC
ลม 6 นอตจากเหนือ/ตะวันออกเฉียงเหนือ

TAF: ZLXY 190303Z 1906/2006 27005G10MPS 3000 HZ NSC TX26/1908Z TN14/1922Z BECMG 1915/1916 03003MPS

สังเกตการณ์สภาพอากาศและพยากรณ์อากาศของสนามบินมากกว่า 4000 แห่ง (รายงาน METAR และ TAF).

สถานีที่ดูได้จะแสดงไว้ด้วยจุดสีเหลืองและสีแดงบนแผนที่.

เลื่อนเมาส์ไปเหนือจุดเพื่อดูชื่อสถานี.

แล้วคลิกเพื่อดูสังเกตการณ์และการพยากรณ์สภาพอากาศ.

ในการเปลี่ยนแผนที่: คลิกที่ปุ่มสีเขียวที่มีกากบาทสีดำเพื่อซูมเข้า; ที่ปุ่มสีเขียวที่มีขีดเพื่อซูมออก; หรือที่ลูกศรสีเขียวเพื่อไปยังแผนที่ที่อยู่ติดกัน.


METAR-TAF: